Saint Vassilios — V7YE3 — position and weather

sailwx.info

Track history (hours):
 
Tides and Currents Weather Stations Pressure Air Temp Water Temp Dewpoint Dewpoint Depression Visibility Wind Speed Wind Dir Waves Ship Positions

Saint Vassilios

Last reported at 2018-Apr-20 02:30 UTC. Time now 2018-Apr-26 01:49 UTC.
Position N 35°57' W 005°35'.

Length 181 m; draft 9.8 m.

Type: Cargo ship. MMSI: 538004639.

Date/timePositionNaut miles runAvg speedWind from/ knotsBaromVisibWave heightAir tempDewpointWater temp
2018-Apr-20 02:30N 35°57' W 005°35'613.4
2018-Apr-20 02:01N 35°59' W 005°27'613.0
2018-Apr-20 01:31N 36°01' W 005°20'26213.0
2018-Apr-19 05:23N 36°41' E 000°02'613.8
2018-Apr-19 04:56N 36°43' E 000°09'4213.9
2018-Apr-19 01:55N 36°49' E 001°01'1113.8
2018-Apr-19 01:08N 36°50' E 001°14'3613.5
2018-Apr-18 22:30N 36°57' E 001°58'2213.1
2018-Apr-18 20:50N 37°01' E 002°25'52712.6
2018-Apr-17 02:56N 37°03' E 013°24'613.0
2018-Apr-17 02:26N 37°00' E 013°32'512.2
2018-Apr-17 02:00N 36°58' E 013°38'611.4
2018-Apr-17 01:30N 36°56' E 013°45'713.5
2018-Apr-17 01:00N 36°53' E 013°52'713.6
2018-Apr-17 00:30N 36°51' E 014°00'612.6
2018-Apr-17 00:00N 36°49' E 014°08'610.9
2018-Apr-16 23:29N 36°46' E 014°14'612.2
2018-Apr-16 23:00N 36°44' E 014°21'712.5
2018-Apr-16 22:25N 36°41' E 014°29'715.4
2018-Apr-16 21:59N 36°39' E 014°37'5 9.2
2018-Apr-16 21:29N 36°38' E 014°43'612.6
2018-Apr-16 21:00N 36°37' E 014°50'714.1
2018-Apr-16 20:30N 36°35' E 014°59'611.7
2018-Apr-16 19:59N 36°35' E 015°06'  
Track history (hours):
 
Tides and Currents Weather Stations Pressure Air Temp Water Temp Dewpoint Dewpoint Depression Visibility Wind Speed Wind Dir Waves Ship Positions

Saint Vassilios

Last reported at 2018-Apr-20 02:30 UTC. Time now 2018-Apr-26 01:49 UTC.
Position N 35°57' W 005°35'.

Length 181 m; draft 9.8 m.

Type: Cargo ship. MMSI: 538004639.

Date/timePositionNaut miles runAvg speedWind from/ knotsBaromVisibWave heightAir tempDewpointWater temp
2018-Apr-20 02:30N 35°57' W 005°35'613.4
2018-Apr-20 02:01N 35°59' W 005°27'613.0
2018-Apr-20 01:31N 36°01' W 005°20'26213.0
2018-Apr-19 05:23N 36°41' E 000°02'613.8
2018-Apr-19 04:56N 36°43' E 000°09'4213.9
2018-Apr-19 01:55N 36°49' E 001°01'1113.8
2018-Apr-19 01:08N 36°50' E 001°14'3613.5
2018-Apr-18 22:30N 36°57' E 001°58'2213.1
2018-Apr-18 20:50N 37°01' E 002°25'52712.6
2018-Apr-17 02:56N 37°03' E 013°24'613.0
2018-Apr-17 02:26N 37°00' E 013°32'512.2
2018-Apr-17 02:00N 36°58' E 013°38'611.4
2018-Apr-17 01:30N 36°56' E 013°45'713.5
2018-Apr-17 01:00N 36°53' E 013°52'713.6
2018-Apr-17 00:30N 36°51' E 014°00'612.6
2018-Apr-17 00:00N 36°49' E 014°08'610.9
2018-Apr-16 23:29N 36°46' E 014°14'612.2
2018-Apr-16 23:00N 36°44' E 014°21'712.5
2018-Apr-16 22:25N 36°41' E 014°29'715.4
2018-Apr-16 21:59N 36°39' E 014°37'5 9.2
2018-Apr-16 21:29N 36°38' E 014°43'612.6
2018-Apr-16 21:00N 36°37' E 014°50'714.1
2018-Apr-16 20:30N 36°35' E 014°59'611.7
2018-Apr-16 19:59N 36°35' E 015°06'  

Dump ship's entire track history